Relevés horaires Bierset (Belgique)


Relevés horaires à Bierset - Vendredi 02 Nov. 2018
Heure UTC1 Température [°C] Vent [km/h] Hum. [%] Pres.4 [hPa] Visi. [Km] Nébu. [octa] Préc.5 [mm] Cond.
2m. Res. Ros. Dir.2 Vit. Moy. Raf.3
23:00 2.8 2.8 1.6 SSE 3.7 5.6 7.4 92 1030.9(0.7/3h) 9 1/8 -- --
22:00 3.4 3.4 1.0 SO 3.7 3.7 5.6 84 1030.6(1.4/3h) 15 1/8 -- --
21:00 4.0 4.0 2.0 SSE 3.7 3.7 3.7 87 1030.4(1.9/3h) 15 0/8 -- --
20:00 3.8 3.8 1.6 OSO 1.9 3.7 3.7 86 1030(2.5/3h) 30 0/8 -- --
19:00 4.7 4.7 1.8 O 3.7 3.7 3.7 81 1029.1(2.2/3h) 30 0/8 -- --
18:00 5.1 5.1 2.4 O 3.7 7.4 11.1 83 1028.4(2.1/3h) 30 2/8 0/12h
--
17:00 6.3 6.3 2.9 O 1.9 3.7 5.6 79 1027.3(2.2/3h) 30 2/8 -- --
16:00 7.9 7.9 2.8 ONO 3.7 5.6 7.4 70 1026.6(2.1/3h) 30 1/8 -- --
15:00 9.3 8.8 2.8 O 5.6 7.4 11.1 64 1026(1.9/3h) 30 1/8 -- --
14:00 9.4 8.9 3.8 O 5.6 7.4 9.3 68 1024.8(1.2/3h) 30 2/8 -- --
13:00 8.8 7.7 3.0 O 7.4 7.4 11.1 67 1024.4(1.3/3h) 20 4/8 -- --
12:00 9.0 8 3.4 ONO 7.4 7.4 13.0 68 1024(1.5/3h) 20 5/8 0/6h
--
11:00 8.8 8.2 4.6 O 5.6 7.4 9.3 75 1023.6(2.0/3h) 20 6/8 -- --
10:00 7.9 6.7 5.4 O 7.4 7.4 9.3 84 1023.1(2.6/3h) 20 6/8 -- --
09:00 7.3 6.5 5.8 OSO 5.6 7.4 13.0 90 1022.6(2.8/3h) 10 4/8 -- --
08:00 6.4 5.5 5.4 SO 5.6 5.6 13.0 93 1021.8(3.2/3h) 9 3/8 -- --
07:00 5.8 4.8 5.1 OSO 5.6 7.4 11.1 95 1020.7(2.9/3h) 7 6/8 -- --
06:00 7.1 5.7 6.0 SSO 7.4 13.0 18.5 93 1019.7(3.1/3h) 10 5/8 0.2/12h
--
05:00 6.0 4.5 5.1 SO 7.4 11.1 13.0 94 1018.5(2.8/3h) 10 4/8 -- --
04:00 8.0 6 5.9 SO 11.1 11.1 13.0 87 1017.5(3.0/3h) 16 6/8 -- --
03:00 7.2 5.4 5.9 SO 9.3 13.0 18.5 91 1016.5(2.8/3h) 40 5/8 -- --
02:00 8.1 6.5 6.5 SO 9.3 11.1 16.7 90 1015.4(2.7/3h) 40 5/8 -- --
01:00 8.3 6.4 6.4 SO 11.1 13.0 18.5 88 1014.5(2.2/3h) 40 5/8 -- --
00:00 9.4 7.7 7.5 SSO 11.1 13.0 18.5 88 1013.4(1.9/3h) 40 7/8 0.2/6h
1.3/24h
Etat du ciel inchangé

1 Coordinated Universal Time. Actuellement il est 18:00 locale et 16:00 UTC.

2 Le vent souffle depuis la direction indiquée vers la direction oposée.

3 Les rafales max. sont disponible 40 min après l'heure du relevé.

4 Pour les stations d'altitude (plus de 600m) le géopotentiel du niveau le plus proche de la pression obligatoire est indiqué.

5 Les stations disposant d'un diffuseur peuvent indiquer "trace". Cela signifie que des précipitations ont touchés le sol mais que la quantité est inférieure à 0.1 mm.

Récapitulatif de la journée
Température [°C] Vent [km/h] Ensoleillement4 [h] Precipitations totale5 [mm] Pression [Hpa]
Min1 Max.2 Moy.3 Max. Min Max.
5.4 9.7 7.8 18.5 0 h 0 min 0 1013.4 1030.9

1 Température minimale relevée entre 18:00 UTC la veille et 18:00 UTC le jour donné.

2 Température maximale relevée entre 06:00 UTC le jour donné et 06:00 UTC le lendemain.

3 Vent moyen de la journée basé sur les relevés horaires.

4 Ensoleillement en heures relevé entre 06:00 UTC la veille et 06:00 UTC le jour donné.

5 Précipitations totales tombées entre 06:00 UTC la jour donné et 06:00 UTC le lendemain.

Graphiques horaires